Terminal Aerodrome Forecast
Issued by NWS Jackson, MS

Home | Current Version | Previous Version | Text Only | Print | Product List | Glossary On
Versions: 1 2 3 4 5 6 7 8 9 10 11 12 13 14
000
FTUS44 KJAN 302320
TAFHBG
TAF
KHBG 302320Z 3100/3124 30005KT P6SM -SHRA VCTS SCT030 BKN050CB
      BKN120
     FM310100 33005KT P6SM FEW050 SCT250
     FM310500 33004KT 5SM BR FEW006
     FM311400 03009G17KT P6SM SCT050=

USA.gov is the U.S. government's official web portal to all federal, state and local government web resources and services.